createdAt,value
2018-06-30T00:00:59.594Z,17.64
2018-06-30T00:01:59.590Z,17.68
2018-06-30T00:02:59.575Z,17.56
2018-06-30T00:03:59.575Z,17.59
2018-06-30T00:04:59.561Z,17.63
2018-06-30T00:05:59.556Z,17.58
2018-06-30T00:06:59.543Z,17.58
2018-06-30T00:07:59.538Z,17.59
2018-06-30T00:08:59.529Z,17.58
2018-06-30T00:09:59.521Z,17.58
2018-06-30T00:10:59.510Z,17.63
2018-06-30T00:11:59.498Z,17.58
2018-06-30T00:12:59.492Z,17.62
2018-06-30T00:13:59.480Z,17.56
2018-06-30T00:14:59.474Z,17.62
2018-06-30T00:15:59.468Z,17.58
2018-06-30T00:16:59.456Z,17.51
2018-06-30T00:17:59.448Z,17.58
2018-06-30T00:18:59.441Z,17.52
2018-06-30T00:19:59.433Z,17.51
2018-06-30T00:20:59.423Z,17.52
2018-06-30T00:21:59.411Z,17.51
2018-06-30T00:22:59.406Z,17.55
2018-06-30T00:23:59.393Z,17.44
2018-06-30T00:24:59.387Z,17.44
2018-06-30T00:25:59.379Z,17.52
2018-06-30T00:26:59.368Z,17.54
2018-06-30T00:27:59.360Z,17.52
2018-06-30T00:28:59.350Z,17.51
2018-06-30T00:29:59.337Z,17.48
2018-06-30T00:30:59.334Z,17.44
2018-06-30T00:31:59.326Z,17.44
2018-06-30T00:32:59.316Z,17.44
2018-06-30T00:33:59.308Z,17.52
2018-06-30T00:34:59.303Z,17.54
2018-06-30T00:35:59.287Z,17.54
2018-06-30T00:36:59.281Z,17.43
2018-06-30T00:37:59.275Z,17.46
2018-06-30T00:38:59.263Z,17.54
2018-06-30T00:39:59.253Z,17.52
2018-06-30T00:40:59.247Z,17.54
2018-06-30T00:41:59.245Z,17.56
2018-06-30T00:42:59.246Z,17.59
2018-06-30T00:43:59.218Z,17.64
2018-06-30T00:44:59.212Z,17.56
2018-06-30T00:45:59.200Z,17.56
2018-06-30T00:46:59.193Z,17.54
2018-06-30T00:47:59.185Z,17.52
2018-06-30T00:48:59.175Z,17.52
2018-06-30T00:49:59.167Z,17.55
2018-06-30T00:50:59.154Z,17.56
2018-06-30T00:51:59.148Z,17.52
2018-06-30T00:52:59.140Z,17.48
2018-06-30T00:53:59.128Z,17.48
2018-06-30T00:54:59.121Z,17.51
2018-06-30T00:55:59.144Z,17.48
2018-06-30T00:56:59.104Z,17.48
2018-06-30T00:57:59.097Z,17.49
2018-06-30T00:58:59.087Z,17.34
2018-06-30T00:59:59.080Z,17.34
2018-06-30T01:00:59.073Z,17.41
2018-06-30T01:01:59.058Z,17.38
2018-06-30T01:02:59.053Z,17.46
2018-06-30T01:03:59.043Z,17.43
2018-06-30T01:04:59.033Z,17.37
2018-06-30T01:05:59.029Z,17.40
2018-06-30T01:06:59.016Z,17.33
2018-06-30T01:07:59.015Z,17.33
2018-06-30T01:08:58.998Z,17.30
2018-06-30T01:09:58.988Z,17.30
2018-06-30T01:10:58.978Z,17.26
2018-06-30T01:11:58.971Z,17.33
2018-06-30T01:12:58.958Z,17.19
2018-06-30T01:13:58.960Z,17.19
2018-06-30T01:14:58.949Z,17.16
2018-06-30T01:15:58.935Z,17.19
2018-06-30T01:16:58.928Z,17.19
2018-06-30T01:17:58.919Z,17.14
2018-06-30T01:18:58.908Z,17.16
2018-06-30T01:19:58.899Z,17.15
2018-06-30T01:20:58.912Z,17.16
2018-06-30T01:21:58.886Z,17.12
2018-06-30T01:22:58.871Z,17.14
2018-06-30T01:23:58.863Z,17.15
2018-06-30T01:24:58.856Z,17.15
2018-06-30T01:25:58.847Z,17.08
2018-06-30T01:26:58.843Z,17.07
2018-06-30T01:27:58.821Z,17.14
2018-06-30T01:28:58.823Z,17.01
2018-06-30T01:29:58.807Z,17.07
2018-06-30T01:30:58.794Z,17.04
2018-06-30T01:31:58.792Z,17.06
2018-06-30T01:32:58.788Z,17.01
2018-06-30T01:33:58.772Z,17.04
2018-06-30T01:34:58.763Z,16.93
2018-06-30T01:35:58.754Z,16.93
2018-06-30T01:36:58.746Z,16.86
2018-06-30T01:37:58.736Z,16.97
2018-06-30T01:38:58.729Z,16.96
2018-06-30T01:39:58.724Z,16.96
2018-06-30T01:40:58.707Z,16.93
2018-06-30T01:41:58.699Z,16.89
2018-06-30T01:42:58.689Z,16.89
2018-06-30T01:43:58.687Z,16.93
2018-06-30T01:44:58.675Z,16.89
2018-06-30T01:45:58.669Z,16.89
2018-06-30T01:46:58.654Z,16.85
2018-06-30T01:47:58.644Z,16.83
2018-06-30T01:48:58.638Z,16.73
2018-06-30T01:49:58.631Z,16.75
2018-06-30T01:50:58.619Z,16.75
2018-06-30T01:51:58.605Z,16.71
2018-06-30T01:52:58.602Z,16.82
2018-06-30T01:53:58.585Z,16.79
2018-06-30T01:54:58.580Z,16.68
2018-06-30T01:55:58.576Z,16.73
2018-06-30T01:56:58.564Z,16.60
2018-06-30T01:57:58.552Z,16.70
2018-06-30T01:58:58.544Z,16.68
2018-06-30T01:59:58.533Z,16.67
2018-06-30T02:00:58.526Z,16.73
2018-06-30T02:01:58.516Z,16.58
2018-06-30T02:02:58.511Z,16.64
2018-06-30T02:03:58.499Z,16.60
2018-06-30T02:04:58.486Z,16.58
2018-06-30T02:05:58.479Z,16.43
2018-06-30T02:06:58.471Z,16.34
2018-06-30T02:07:58.461Z,16.39
2018-06-30T02:08:58.453Z,16.42
2018-06-30T02:09:58.445Z,16.27
2018-06-30T02:10:58.436Z,16.24
2018-06-30T02:11:58.434Z,16.28
2018-06-30T02:12:58.422Z,16.28
2018-06-30T02:13:58.408Z,16.23
2018-06-30T02:14:58.394Z,16.23
2018-06-30T02:15:58.402Z,16.24
2018-06-30T02:16:58.378Z,16.25
2018-06-30T02:17:58.368Z,16.21
2018-06-30T02:18:58.355Z,16.24
2018-06-30T02:19:58.347Z,16.23
2018-06-30T02:20:58.343Z,16.17
2018-06-30T02:21:58.331Z,16.15
2018-06-30T02:22:58.320Z,16.25
2018-06-30T02:23:58.310Z,16.24
2018-06-30T02:24:58.305Z,16.27
2018-06-30T02:25:58.292Z,16.21
2018-06-30T02:26:58.279Z,16.27
2018-06-30T02:27:58.277Z,16.23
2018-06-30T02:28:58.269Z,16.14
2018-06-30T02:29:58.249Z,16.15
2018-06-30T02:30:58.248Z,16.14
2018-06-30T02:31:58.241Z,16.21
2018-06-30T02:32:58.226Z,16.14
2018-06-30T02:33:58.221Z,16.15
2018-06-30T02:34:58.207Z,16.09
2018-06-30T02:35:58.200Z,16.05
2018-06-30T02:36:58.192Z,16.02
2018-06-30T02:37:58.176Z,16.12
2018-06-30T02:38:58.199Z,16.14
2018-06-30T02:39:58.162Z,16.12
2018-06-30T02:40:58.167Z,16.12
2018-06-30T02:41:58.145Z,16.12
2018-06-30T02:42:58.134Z,16.08
2018-06-30T02:43:58.124Z,16.11
2018-06-30T02:44:58.114Z,16.14
2018-06-30T02:45:58.124Z,16.05
2018-06-30T02:46:58.095Z,16.08
2018-06-30T02:47:58.085Z,16.11
2018-06-30T02:48:58.075Z,16.12
2018-06-30T02:49:58.068Z,16.08
2018-06-30T02:50:58.056Z,16.08
2018-06-30T02:51:58.044Z,16.09
2018-06-30T02:52:58.030Z,16.08
2018-06-30T02:53:58.026Z,16.01
2018-06-30T02:54:58.016Z,16.02
2018-06-30T02:55:58.012Z,16.09
2018-06-30T02:56:57.998Z,16.04
2018-06-30T02:57:57.990Z,16.05
2018-06-30T02:58:57.981Z,16.00
2018-06-30T02:59:57.976Z,16.05
2018-06-30T03:00:57.959Z,16.04
2018-06-30T03:01:57.947Z,15.96
2018-06-30T03:02:57.939Z,15.97
2018-06-30T03:03:57.933Z,15.93
2018-06-30T03:04:57.923Z,15.87
2018-06-30T03:05:57.913Z,15.86
2018-06-30T03:06:57.902Z,15.89
2018-06-30T03:07:57.896Z,15.84
2018-06-30T03:08:57.889Z,15.76
2018-06-30T03:09:57.880Z,15.76
2018-06-30T03:10:57.864Z,15.86
2018-06-30T03:11:57.856Z,15.69
2018-06-30T03:12:57.846Z,15.76
2018-06-30T03:13:57.836Z,15.74
2018-06-30T03:14:57.832Z,15.72
2018-06-30T03:15:57.817Z,15.68
2018-06-30T03:16:57.808Z,15.75
2018-06-30T03:17:57.797Z,15.74
2018-06-30T03:18:57.791Z,15.76
2018-06-30T03:19:57.780Z,15.74
2018-06-30T03:20:57.769Z,15.75
2018-06-30T03:21:57.759Z,15.71
2018-06-30T03:22:57.747Z,15.68
2018-06-30T03:23:57.738Z,15.67
2018-06-30T03:24:57.736Z,15.68
2018-06-30T03:25:57.729Z,15.65
2018-06-30T03:26:57.710Z,15.69
2018-06-30T03:27:57.701Z,15.60
2018-06-30T03:28:57.688Z,15.65
2018-06-30T03:29:57.674Z,15.59
2018-06-30T03:30:57.673Z,15.72
2018-06-30T03:31:57.661Z,15.65
2018-06-30T03:32:57.657Z,15.67
2018-06-30T03:33:57.639Z,15.71
2018-06-30T03:34:57.635Z,15.62
2018-06-30T03:35:57.618Z,15.69
2018-06-30T03:36:57.611Z,15.53
2018-06-30T03:37:57.603Z,15.62
2018-06-30T03:38:57.592Z,15.60
2018-06-30T03:39:57.584Z,15.59
2018-06-30T03:40:57.574Z,15.56
2018-06-30T03:41:57.564Z,15.50
2018-06-30T03:42:57.550Z,15.39
2018-06-30T03:43:57.543Z,15.53
2018-06-30T03:44:57.531Z,15.49
2018-06-30T03:45:57.525Z,15.46
2018-06-30T03:46:57.516Z,15.43
2018-06-30T03:47:57.509Z,15.56
2018-06-30T03:48:57.492Z,15.56
2018-06-30T03:49:57.484Z,15.51
2018-06-30T03:50:57.471Z,15.56
2018-06-30T03:51:57.461Z,15.59
2018-06-30T03:52:57.453Z,15.51
2018-06-30T03:53:57.449Z,15.59
2018-06-30T03:54:57.430Z,15.56
2018-06-30T03:55:57.423Z,15.54
2018-06-30T03:56:57.413Z,15.41
2018-06-30T03:57:57.403Z,15.44
2018-06-30T03:58:57.393Z,15.39
2018-06-30T03:59:57.383Z,15.44
2018-06-30T04:00:57.378Z,15.38
2018-06-30T04:01:57.361Z,15.41
2018-06-30T04:02:57.355Z,15.34
2018-06-30T04:03:57.338Z,15.35
2018-06-30T04:04:57.379Z,15.34
2018-06-30T04:05:57.327Z,15.41
2018-06-30T04:06:57.312Z,15.39
2018-06-30T04:07:57.305Z,15.39
2018-06-30T04:08:57.294Z,15.47
2018-06-30T04:09:57.283Z,15.43
2018-06-30T04:10:57.273Z,15.49
2018-06-30T04:11:57.265Z,15.54
2018-06-30T04:12:57.259Z,15.57
2018-06-30T04:13:57.243Z,15.57
2018-06-30T04:14:57.233Z,15.57
2018-06-30T04:15:57.227Z,15.59
2018-06-30T04:16:57.217Z,15.54
2018-06-30T04:17:57.203Z,15.60
2018-06-30T04:18:57.192Z,15.54
2018-06-30T04:19:57.186Z,15.60
2018-06-30T04:20:57.178Z,15.60
2018-06-30T04:21:57.184Z,15.59
2018-06-30T04:22:57.154Z,15.53
2018-06-30T04:23:57.144Z,15.60
2018-06-30T04:24:57.130Z,15.56
2018-06-30T04:25:57.129Z,15.56
2018-06-30T04:26:57.114Z,15.56
2018-06-30T04:27:57.105Z,15.57
2018-06-30T04:28:57.095Z,15.59
2018-06-30T04:29:57.085Z,15.65
2018-06-30T04:30:57.073Z,15.57
2018-06-30T04:31:57.069Z,15.60
2018-06-30T04:32:57.057Z,15.53
2018-06-30T04:33:57.045Z,15.54
2018-06-30T04:34:57.038Z,15.50
2018-06-30T04:35:57.024Z,15.41
2018-06-30T04:36:57.017Z,15.34
2018-06-30T04:37:57.002Z,15.27
2018-06-30T04:38:56.994Z,15.21
2018-06-30T04:39:56.980Z,15.19
2018-06-30T04:40:56.977Z,15.19
2018-06-30T04:41:56.964Z,15.21
2018-06-30T04:42:56.955Z,15.25
2018-06-30T04:43:56.951Z,15.28
2018-06-30T04:44:56.935Z,15.23
2018-06-30T04:45:56.925Z,15.31
2018-06-30T04:46:56.913Z,15.28
2018-06-30T04:47:56.904Z,15.31
2018-06-30T04:48:56.899Z,15.28
2018-06-30T04:49:56.885Z,15.27
2018-06-30T04:50:56.905Z,15.29
2018-06-30T04:51:56.867Z,15.35
2018-06-30T04:52:56.854Z,15.38
2018-06-30T04:53:56.845Z,15.34
2018-06-30T04:54:56.834Z,15.39
2018-06-30T04:55:56.827Z,15.41
2018-06-30T04:56:56.814Z,15.35
2018-06-30T04:57:56.804Z,15.36
2018-06-30T04:58:56.797Z,15.36
2018-06-30T04:59:56.789Z,15.44
2018-06-30T05:00:56.779Z,15.38
2018-06-30T05:01:56.765Z,15.35
2018-06-30T05:02:56.754Z,15.35
2018-06-30T05:03:56.749Z,15.27
2018-06-30T05:04:56.733Z,15.28
2018-06-30T05:05:56.722Z,15.27
2018-06-30T05:06:56.713Z,15.28
2018-06-30T05:07:56.709Z,15.28
2018-06-30T05:08:56.695Z,15.27
2018-06-30T05:09:56.685Z,15.27
2018-06-30T05:10:56.673Z,15.31
2018-06-30T05:11:56.665Z,15.32
2018-06-30T05:12:56.677Z,15.36
2018-06-30T05:13:56.653Z,15.34
2018-06-30T05:14:56.634Z,15.34
2018-06-30T05:15:56.629Z,15.35
2018-06-30T05:16:56.616Z,15.41
2018-06-30T05:17:56.605Z,15.44
2018-06-30T05:18:56.594Z,15.38
2018-06-30T05:19:56.588Z,15.41
2018-06-30T05:20:56.574Z,15.35
2018-06-30T05:21:56.563Z,15.47
2018-06-30T05:22:56.551Z,15.49
2018-06-30T05:23:56.545Z,15.39
2018-06-30T05:24:56.533Z,15.47
2018-06-30T05:25:56.554Z,15.56
2018-06-30T05:26:56.517Z,15.56
2018-06-30T05:27:56.511Z,15.59
2018-06-30T05:28:56.493Z,15.65
2018-06-30T05:29:56.481Z,15.56
2018-06-30T05:30:56.470Z,15.53
2018-06-30T05:31:56.466Z,15.59
2018-06-30T05:32:56.450Z,15.60
2018-06-30T05:33:56.440Z,15.69
2018-06-30T05:34:56.432Z,15.65
2018-06-30T05:35:56.420Z,15.67
2018-06-30T05:36:56.410Z,15.67
2018-06-30T05:37:56.402Z,15.69
2018-06-30T05:38:56.389Z,15.65
2018-06-30T05:39:56.385Z,15.76
2018-06-30T05:40:56.373Z,15.75
2018-06-30T05:41:56.365Z,15.78
2018-06-30T05:42:56.353Z,15.76
2018-06-30T05:43:56.343Z,15.76
2018-06-30T05:44:56.333Z,15.87
2018-06-30T05:45:56.322Z,15.90
2018-06-30T05:46:56.308Z,15.90
2018-06-30T05:47:56.299Z,15.90
2018-06-30T05:48:56.290Z,15.97
2018-06-30T05:49:56.281Z,16.04
2018-06-30T05:50:56.270Z,16.05
2018-06-30T05:51:56.292Z,16.07
2018-06-30T05:52:56.255Z,16.07
2018-06-30T05:53:56.243Z,16.08
2018-06-30T05:54:56.229Z,16.11
2018-06-30T05:55:56.227Z,16.11
2018-06-30T05:56:56.211Z,16.09
2018-06-30T05:57:56.195Z,16.12
2018-06-30T05:58:56.189Z,16.05
2018-06-30T05:59:56.187Z,16.11
2018-06-30T06:00:56.177Z,16.24
2018-06-30T06:01:56.156Z,16.21
2018-06-30T06:02:56.152Z,16.23
2018-06-30T06:03:56.143Z,16.39
2018-06-30T06:04:56.136Z,16.56
2018-06-30T06:05:56.120Z,16.70
2018-06-30T06:06:56.116Z,16.76
2018-06-30T06:07:56.100Z,16.86
2018-06-30T06:08:56.094Z,17.06
2018-06-30T06:09:56.111Z,17.16
2018-06-30T06:10:56.668Z,17.19
2018-06-30T06:11:56.074Z,17.25
2018-06-30T06:12:56.058Z,17.37
2018-06-30T06:13:56.046Z,17.41
2018-06-30T06:14:56.040Z,17.52
2018-06-30T06:15:56.038Z,17.59
2018-06-30T06:16:56.017Z,17.68
2018-06-30T06:17:56.007Z,17.77
2018-06-30T06:18:56.002Z,17.81
2018-06-30T06:19:55.991Z,17.90
2018-06-30T06:20:55.980Z,18.03
2018-06-30T06:21:55.974Z,18.07
2018-06-30T06:22:55.963Z,18.12
2018-06-30T06:23:55.951Z,18.20
2018-06-30T06:24:55.944Z,18.32
2018-06-30T06:25:55.986Z,18.37
2018-06-30T06:26:55.928Z,18.42
2018-06-30T06:27:55.916Z,18.52
2018-06-30T06:28:55.910Z,18.55
2018-06-30T06:29:55.895Z,18.55
2018-06-30T06:30:55.892Z,18.62
2018-06-30T06:31:55.878Z,18.78
2018-06-30T06:32:55.879Z,18.69
2018-06-30T06:33:55.859Z,18.80
2018-06-30T06:34:55.854Z,18.88
2018-06-30T06:35:55.845Z,18.91
2018-06-30T06:36:55.837Z,18.90
2018-06-30T06:37:55.825Z,18.92
2018-06-30T06:38:55.815Z,19.06
2018-06-30T06:39:55.811Z,19.14
2018-06-30T06:40:55.793Z,19.14
2018-06-30T06:41:55.792Z,19.14
2018-06-30T06:42:55.781Z,19.22
2018-06-30T06:43:55.770Z,19.21
2018-06-30T06:44:55.765Z,19.26
2018-06-30T06:45:55.757Z,19.32
2018-06-30T06:46:55.754Z,19.46
2018-06-30T06:47:55.741Z,19.48
2018-06-30T06:48:55.732Z,19.41
2018-06-30T06:49:55.725Z,19.46
2018-06-30T06:50:55.749Z,19.58
2018-06-30T06:51:55.706Z,19.68
2018-06-30T06:52:55.700Z,19.78
2018-06-30T06:53:55.694Z,19.63
2018-06-30T06:54:55.682Z,19.80
2018-06-30T06:55:55.678Z,19.78
2018-06-30T06:56:55.666Z,19.87
2018-06-30T06:57:55.670Z,19.88
2018-06-30T06:58:55.649Z,19.92
2018-06-30T06:59:55.643Z,19.95
2018-06-30T07:00:55.631Z,20.06
2018-06-30T07:01:55.627Z,20.08
2018-06-30T07:02:55.622Z,20.14
2018-06-30T07:03:55.609Z,20.21
2018-06-30T07:04:55.601Z,20.23
2018-06-30T07:05:55.595Z,20.28
2018-06-30T07:06:55.587Z,20.31
2018-06-30T07:07:55.576Z,20.38
2018-06-30T07:08:55.570Z,20.43
2018-06-30T07:09:55.560Z,20.52
2018-06-30T07:10:55.550Z,20.57
2018-06-30T07:11:55.543Z,20.67
2018-06-30T07:12:55.535Z,20.70
2018-06-30T07:13:55.529Z,20.73
2018-06-30T07:14:55.525Z,20.74
2018-06-30T07:15:55.516Z,20.85
2018-06-30T07:16:55.508Z,20.89
2018-06-30T07:17:55.498Z,20.87
2018-06-30T07:18:55.488Z,20.85
2018-06-30T07:19:55.490Z,20.92
2018-06-30T07:20:55.482Z,20.99
2018-06-30T07:21:55.468Z,21.01
2018-06-30T07:22:55.459Z,21.04
2018-06-30T07:23:55.455Z,21.04
2018-06-30T07:24:55.445Z,21.14
2018-06-30T07:25:55.439Z,21.17
2018-06-30T07:26:55.431Z,21.27
2018-06-30T07:27:55.423Z,21.25
2018-06-30T07:28:55.417Z,21.34
2018-06-30T07:29:55.410Z,21.46
2018-06-30T07:30:55.403Z,21.43
2018-06-30T07:31:55.396Z,21.44
2018-06-30T07:32:55.408Z,21.53
2018-06-30T07:33:55.376Z,21.50
2018-06-30T07:34:55.380Z,21.53
2018-06-30T07:35:55.376Z,21.54
2018-06-30T07:36:55.360Z,21.64
2018-06-30T07:37:55.355Z,21.68
2018-06-30T07:38:55.341Z,21.71
2018-06-30T07:39:55.337Z,21.82
2018-06-30T07:40:55.333Z,21.88
2018-06-30T07:41:55.321Z,21.98
2018-06-30T07:42:55.316Z,22.00
2018-06-30T07:43:55.310Z,22.03
2018-06-30T07:44:55.304Z,22.15
2018-06-30T07:45:55.294Z,22.09
2018-06-30T07:46:55.287Z,22.12
2018-06-30T07:47:55.277Z,22.15
2018-06-30T07:48:55.271Z,22.24
2018-06-30T07:49:55.265Z,22.31
2018-06-30T07:50:55.263Z,22.36
2018-06-30T07:51:55.253Z,22.35
2018-06-30T07:52:55.245Z,22.33
2018-06-30T07:53:55.242Z,22.43
2018-06-30T07:54:55.228Z,22.49
2018-06-30T07:55:55.227Z,22.60
2018-06-30T07:56:55.220Z,22.58
2018-06-30T07:57:55.211Z,22.61
2018-06-30T07:58:55.208Z,22.54
2018-06-30T07:59:55.198Z,22.76
2018-06-30T08:00:55.192Z,22.72
2018-06-30T08:01:55.187Z,22.73
2018-06-30T08:02:55.177Z,22.79
2018-06-30T08:03:55.171Z,22.67
2018-06-30T08:04:55.167Z,22.58
2018-06-30T08:05:55.155Z,22.68
2018-06-30T08:06:55.151Z,22.70
2018-06-30T08:07:55.145Z,22.73
2018-06-30T08:08:55.145Z,22.68
2018-06-30T08:09:55.131Z,22.72
2018-06-30T08:10:55.135Z,22.68
2018-06-30T08:11:55.122Z,22.52
2018-06-30T08:12:55.116Z,22.49
2018-06-30T08:13:55.131Z,22.37
2018-06-30T08:14:55.105Z,22.37
2018-06-30T08:15:55.099Z,22.35
2018-06-30T08:16:55.091Z,22.37
2018-06-30T08:17:55.081Z,22.40
2018-06-30T08:18:55.076Z,22.45
2018-06-30T08:19:55.073Z,22.42
2018-06-30T08:20:55.064Z,22.36
2018-06-30T08:21:55.056Z,22.36
2018-06-30T08:22:55.051Z,22.33
2018-06-30T08:23:55.042Z,22.37
2018-06-30T08:24:55.035Z,22.39
2018-06-30T08:25:55.030Z,22.37
2018-06-30T08:26:55.027Z,22.40
2018-06-30T08:27:55.018Z,22.45
2018-06-30T08:28:55.009Z,22.37
2018-06-30T08:29:55.001Z,22.36
2018-06-30T08:30:55.000Z,22.45
2018-06-30T08:31:54.989Z,22.57
2018-06-30T08:32:54.985Z,22.55
2018-06-30T08:33:55.033Z,22.61
2018-06-30T08:34:54.972Z,22.61
2018-06-30T08:35:54.964Z,22.62
2018-06-30T08:36:54.960Z,22.73
2018-06-30T08:37:54.948Z,22.70
2018-06-30T08:38:54.946Z,22.75
2018-06-30T08:39:54.946Z,22.73
2018-06-30T08:40:54.934Z,22.76
2018-06-30T08:41:54.928Z,22.82
2018-06-30T08:42:54.922Z,22.77
2018-06-30T08:43:54.913Z,22.90
2018-06-30T08:44:54.914Z,22.82
2018-06-30T08:45:54.913Z,22.83
2018-06-30T08:46:54.899Z,22.85
2018-06-30T08:47:54.893Z,22.80
2018-06-30T08:48:54.884Z,22.65
2018-06-30T08:49:54.878Z,22.75
2018-06-30T08:50:54.870Z,22.70
2018-06-30T08:51:54.865Z,22.73
2018-06-30T08:52:54.859Z,22.65
2018-06-30T08:53:54.857Z,22.86
2018-06-30T08:54:54.841Z,22.82
2018-06-30T08:55:54.839Z,22.79
2018-06-30T08:56:54.839Z,22.80
2018-06-30T08:57:54.825Z,22.83
2018-06-30T08:58:54.824Z,22.90
2018-06-30T08:59:54.820Z,22.91
2018-06-30T09:00:54.806Z,22.95
2018-06-30T09:01:54.806Z,22.85
2018-06-30T09:02:54.800Z,22.91
2018-06-30T09:03:54.786Z,22.92
2018-06-30T09:04:54.778Z,22.92
2018-06-30T09:05:54.776Z,23.01
2018-06-30T09:06:54.770Z,22.91
2018-06-30T09:07:54.762Z,23.15
2018-06-30T09:08:54.755Z,23.12
2018-06-30T09:09:54.751Z,23.15
2018-06-30T09:10:54.748Z,23.33
2018-06-30T09:11:54.766Z,23.39
2018-06-30T09:12:54.738Z,23.39
2018-06-30T09:13:54.739Z,23.35
2018-06-30T09:14:54.724Z,23.36
2018-06-30T09:15:54.715Z,23.36
2018-06-30T09:16:54.709Z,23.47
2018-06-30T09:17:54.706Z,23.42
2018-06-30T09:18:54.693Z,23.48
2018-06-30T09:19:54.693Z,23.46
2018-06-30T09:20:54.680Z,23.38
2018-06-30T09:21:54.680Z,23.53
2018-06-30T09:22:54.672Z,23.57
2018-06-30T09:23:54.669Z,23.54
2018-06-30T09:24:54.663Z,23.61
2018-06-30T09:25:54.650Z,23.57
2018-06-30T09:26:54.650Z,23.51
2018-06-30T09:27:54.642Z,23.60
2018-06-30T09:28:54.639Z,23.65
2018-06-30T09:29:54.630Z,23.68
2018-06-30T09:30:54.623Z,23.68
2018-06-30T09:31:54.615Z,23.79
2018-06-30T09:32:54.621Z,23.85
2018-06-30T09:33:54.603Z,23.83
2018-06-30T09:34:54.595Z,23.79
2018-06-30T09:35:54.598Z,23.85
2018-06-30T09:36:54.590Z,23.87
2018-06-30T09:37:54.616Z,23.90
2018-06-30T09:38:54.580Z,23.91
2018-06-30T09:39:54.568Z,23.93
2018-06-30T09:40:54.574Z,23.93
2018-06-30T09:41:54.558Z,23.93
2018-06-30T09:42:54.548Z,24.06
2018-06-30T09:43:54.547Z,24.10
2018-06-30T09:44:54.544Z,24.16
2018-06-30T09:45:54.538Z,24.21
2018-06-30T09:46:54.533Z,24.13
2018-06-30T09:47:54.530Z,24.18
2018-06-30T09:48:54.519Z,24.22
2018-06-30T09:49:54.511Z,24.20
2018-06-30T09:50:54.508Z,24.18
2018-06-30T09:51:54.500Z,24.16
2018-06-30T09:52:54.501Z,24.24
2018-06-30T09:53:54.488Z,24.18
2018-06-30T09:54:54.488Z,24.24
2018-06-30T09:55:54.483Z,24.28
2018-06-30T09:56:54.479Z,24.31
2018-06-30T09:57:54.464Z,24.31
2018-06-30T09:58:54.459Z,24.24
2018-06-30T09:59:54.457Z,24.31
2018-06-30T10:00:54.447Z,24.40
2018-06-30T10:01:54.442Z,24.39
2018-06-30T10:02:54.446Z,24.37
2018-06-30T10:03:54.444Z,24.49
2018-06-30T10:04:54.428Z,24.53
2018-06-30T10:05:54.415Z,24.53
2018-06-30T10:06:54.419Z,24.58
2018-06-30T10:07:54.409Z,24.57
2018-06-30T10:08:54.407Z,24.52
2018-06-30T10:09:54.399Z,24.58
2018-06-30T10:10:54.394Z,24.64
2018-06-30T10:11:54.387Z,24.68
2018-06-30T10:12:54.383Z,24.84
2018-06-30T10:13:54.374Z,24.93
2018-06-30T10:14:54.373Z,24.88
2018-06-30T10:15:54.367Z,24.85
2018-06-30T10:16:54.359Z,24.85
2018-06-30T10:17:54.356Z,24.81
2018-06-30T10:18:54.350Z,24.78
2018-06-30T10:19:54.348Z,24.85
2018-06-30T10:20:54.407Z,24.81
2018-06-30T10:21:54.336Z,24.91
2018-06-30T10:22:54.333Z,24.99
2018-06-30T10:23:54.321Z,25.03
2018-06-30T10:24:54.318Z,24.98
2018-06-30T10:25:54.313Z,25.06
2018-06-30T10:26:54.309Z,25.21
2018-06-30T10:27:54.301Z,25.10
2018-06-30T10:28:54.302Z,25.20
2018-06-30T10:29:54.291Z,25.21
2018-06-30T10:30:54.285Z,25.28
2018-06-30T10:31:54.285Z,25.46
2018-06-30T10:32:54.277Z,25.42
2018-06-30T10:33:54.273Z,25.46
2018-06-30T10:34:54.267Z,25.42
2018-06-30T10:35:54.265Z,25.42
2018-06-30T10:36:54.255Z,25.45
2018-06-30T10:37:54.248Z,25.52
2018-06-30T10:38:54.253Z,25.45
2018-06-30T10:39:54.241Z,25.40
2018-06-30T10:40:54.233Z,25.61
2018-06-30T10:41:54.226Z,25.55
2018-06-30T10:42:54.225Z,25.54
2018-06-30T10:43:54.220Z,25.32
2018-06-30T10:44:54.214Z,25.45
2018-06-30T10:45:54.212Z,25.45
2018-06-30T10:46:54.204Z,25.57
2018-06-30T10:47:54.204Z,25.75
2018-06-30T10:48:54.194Z,25.76
2018-06-30T10:49:54.196Z,25.72
2018-06-30T10:50:54.189Z,25.57
2018-06-30T10:51:54.183Z,25.47
2018-06-30T10:52:54.177Z,25.39
2018-06-30T10:53:54.167Z,25.24
2018-06-30T10:54:54.169Z,25.06
2018-06-30T10:55:54.176Z,25.00
2018-06-30T10:56:54.151Z,24.87
2018-06-30T10:57:54.163Z,24.87
2018-06-30T10:58:54.148Z,25.06
2018-06-30T10:59:54.144Z,25.24
2018-06-30T11:00:54.140Z,25.36
2018-06-30T11:01:54.130Z,25.30
2018-06-30T11:02:54.132Z,25.45
2018-06-30T11:03:54.127Z,25.55
2018-06-30T11:04:54.116Z,25.65
2018-06-30T11:05:54.139Z,25.72
2018-06-30T11:06:54.106Z,25.77
2018-06-30T11:07:54.101Z,25.83
2018-06-30T11:08:54.094Z,25.99
2018-06-30T11:09:54.095Z,25.98
2018-06-30T11:10:54.142Z,26.01
2018-06-30T11:11:54.079Z,26.23
2018-06-30T11:12:54.080Z,26.30
2018-06-30T11:13:54.068Z,26.26
2018-06-30T11:14:54.067Z,26.33
2018-06-30T11:15:54.065Z,26.12
2018-06-30T11:16:54.055Z,26.13
2018-06-30T11:17:54.059Z,26.20
2018-06-30T11:18:54.051Z,26.13
2018-06-30T11:19:54.044Z,26.01
2018-06-30T11:20:54.041Z,26.05
2018-06-30T11:21:54.037Z,26.05
2018-06-30T11:22:54.032Z,25.92
2018-06-30T11:23:54.028Z,25.95
2018-06-30T11:24:54.020Z,25.99
2018-06-30T11:25:54.018Z,26.02
2018-06-30T11:26:54.021Z,25.97
2018-06-30T11:27:54.006Z,26.02
2018-06-30T11:28:54.000Z,26.15
2018-06-30T11:29:54.000Z,26.17
2018-06-30T11:30:53.992Z,26.30
2018-06-30T11:31:53.987Z,26.29
2018-06-30T11:32:53.987Z,26.32
2018-06-30T11:33:53.984Z,26.36
2018-06-30T11:34:53.975Z,26.45
2018-06-30T11:35:53.976Z,26.47
2018-06-30T11:36:53.964Z,26.47
2018-06-30T11:37:53.968Z,26.60
2018-06-30T11:38:53.957Z,26.60
2018-06-30T11:39:53.954Z,26.63
2018-06-30T11:40:54.041Z,26.72
2018-06-30T11:41:53.945Z,26.73
2018-06-30T11:42:53.941Z,26.82
2018-06-30T11:43:53.933Z,27.03
2018-06-30T11:44:53.936Z,26.99
2018-06-30T11:45:53.933Z,27.00
2018-06-30T11:46:53.928Z,27.12
2018-06-30T11:47:53.922Z,27.13
2018-06-30T11:48:53.920Z,26.88
2018-06-30T11:49:53.912Z,26.65
2018-06-30T11:50:53.908Z,26.52
2018-06-30T11:51:53.906Z,26.52
2018-06-30T11:52:53.902Z,26.54
2018-06-30T11:53:53.896Z,26.65
2018-06-30T11:54:53.893Z,26.81
2018-06-30T11:55:53.891Z,26.94
2018-06-30T11:56:53.883Z,26.92
2018-06-30T11:57:53.877Z,26.97
2018-06-30T11:58:53.880Z,27.09
2018-06-30T11:59:53.869Z,27.25
2018-06-30T12:00:53.864Z,27.25
2018-06-30T12:01:53.870Z,27.43
2018-06-30T12:02:53.861Z,27.47
2018-06-30T12:03:53.856Z,27.46
2018-06-30T12:04:53.857Z,27.50
2018-06-30T12:05:53.849Z,27.62
2018-06-30T12:06:53.841Z,27.47
2018-06-30T12:07:53.841Z,27.37
2018-06-30T12:08:53.837Z,27.22
2018-06-30T12:09:53.833Z,27.04
2018-06-30T12:10:53.832Z,27.09
2018-06-30T12:11:53.828Z,27.24
2018-06-30T12:12:53.821Z,27.27
2018-06-30T12:13:53.818Z,27.27
2018-06-30T12:14:53.811Z,27.22
2018-06-30T12:15:53.810Z,27.32
2018-06-30T12:16:53.812Z,27.41
2018-06-30T12:17:53.802Z,27.37
2018-06-30T12:18:53.799Z,27.50
2018-06-30T12:19:53.795Z,27.65
2018-06-30T12:20:53.797Z,27.65
2018-06-30T12:21:53.799Z,27.62
2018-06-30T12:22:53.834Z,27.67
2018-06-30T12:23:53.787Z,27.54
2018-06-30T12:24:53.780Z,27.55
2018-06-30T12:25:53.774Z,27.66
2018-06-30T12:26:53.772Z,27.62
2018-06-30T12:27:53.766Z,27.75
2018-06-30T12:28:53.764Z,27.77
2018-06-30T12:29:53.760Z,27.62
2018-06-30T12:30:53.753Z,27.54
2018-06-30T12:31:53.761Z,27.62
2018-06-30T12:32:53.745Z,27.63
2018-06-30T12:33:53.742Z,27.69
2018-06-30T12:34:53.746Z,27.70
2018-06-30T12:35:53.741Z,27.74
2018-06-30T12:36:53.733Z,27.81
2018-06-30T12:37:53.734Z,27.81
2018-06-30T12:38:53.733Z,27.77
2018-06-30T12:39:53.729Z,27.78
2018-06-30T12:40:53.719Z,27.79
2018-06-30T12:41:53.723Z,27.81
2018-06-30T12:42:54.785Z,27.92
2018-06-30T12:43:53.714Z,27.94
2018-06-30T12:44:53.715Z,27.92
2018-06-30T12:45:53.710Z,27.96
2018-06-30T12:46:53.701Z,28.04
2018-06-30T12:47:53.700Z,28.07
2018-06-30T12:48:53.696Z,28.09
2018-06-30T12:49:53.690Z,28.09
2018-06-30T12:50:53.691Z,28.04
2018-06-30T12:51:53.685Z,28.07
2018-06-30T12:52:53.679Z,28.03